Time;durP1;ratioP1;P1;durP2;ratioP2;P2;SDS_P1;SDS_P2;PMS_P1;PMS_P2;Temp;Humidity;BMP_temperature;BMP_pressure;BME280_temperature;BME280_humidity;BME280_pressure;Samples;Min_cycle;Max_cycle;Signal;HPM_P1;HPM_P2
2022/08/18 21:22:18;;;;;;;;;;;28.80;99.90;;;;;;2574235;54;50709;-72
2022/08/18 21:24:49;;;;;;;;;;;24.10;99.90;;;;;;2617039;54;19947;-71
2022/08/18 21:27:23;;;;;;;;;;;24.00;99.90;;;;;;2616114;36;19946;-71
2022/08/18 21:29:53;;;;;;;;;;;24.00;99.90;;;;;;2615878;54;19939;-72
2022/08/18 21:32:25;;;;;;;;;;;24.00;99.90;;;;;;2615373;54;19946;-73
2022/08/18 21:34:55;;;;;;;;;;;24.00;99.90;;;;;;2616586;54;19946;-72
2022/08/18 21:37:32;;;;;;;;;;;24.00;99.90;;;;;;2615687;47;19946;-73
2022/08/18 21:40:03;;;;;;;;;;;24.00;99.90;;;;;;2615711;47;20101;-70
2022/08/18 21:42:42;;;;;;;;;;;23.90;99.90;;;;;;2615570;54;20465;-72
2022/08/18 21:45:15;;;;;;;;;;;24.00;99.90;;;;;;2615137;47;19951;-71
2022/08/18 21:47:49;;;;;;;;;;;24.00;99.90;;;;;;2615716;54;19946;-72
2022/08/18 21:50:21;;;;;;;;;;;24.00;99.90;;;;;;2616523;54;19946;-74
2022/08/18 21:52:55;;;;;;;;;;;23.90;99.90;;;;;;2617339;54;20516;-73
2022/08/18 21:55:27;;;;;;;;;;;24.00;99.90;;;;;;2618188;54;19951;-74
2022/08/18 21:58:05;;;;;;;;;;;23.90;99.90;;;;;;2618798;54;19939;-73
2022/08/18 22:00:36;;;;;;;;;;;23.90;99.90;;;;;;2617316;49;19953;-73
2022/08/18 22:03:15;;;;;;;;;;;23.90;99.90;;;;;;2615892;47;19977;-73
2022/08/18 22:05:46;;;;;;;;;;;23.80;99.90;;;;;;2615317;54;19970;-72
2022/08/18 22:08:31;;;;;;;;;;;23.80;99.90;;;;;;2616124;47;19969;-72
2022/08/18 22:14:27;;;;;;;;;;;23.80;99.90;;;;;;2616099;54;19954;-72
2022/08/18 22:17:12;;;;;;;;;;;23.70;99.90;;;;;;2615770;54;19953;-73
2022/08/18 22:19:41;;;;;;;;;;;23.70;99.90;;;;;;2615147;46;19957;-72
2022/08/18 22:24:58;;;;;;;;;;;23.60;99.90;;;;;;2617194;54;19953;-74
2022/08/18 22:27:28;;;;;;;;;;;23.60;99.90;;;;;;2617128;54;19947;-71
2022/08/18 22:30:03;;;;;;;;;;;23.60;99.90;;;;;;2616669;39;20353;-71
2022/08/18 22:32:34;;;;;;;;;;;23.60;99.90;;;;;;2616389;47;20492;-72
2022/08/18 22:35:04;;;;;;;;;;;23.60;99.90;;;;;;2617486;54;19973;-72
2022/08/18 22:37:37;;;;;;;;;;;23.50;99.90;;;;;;2615760;47;19955;-72
2022/08/18 22:40:11;;;;;;;;;;;23.40;99.90;;;;;;2615521;54;19946;-74
2022/08/18 22:42:41;;;;;;;;;;;23.40;99.90;;;;;;2616321;54;20391;-72
2022/08/18 22:45:13;;;;;;;;;;;23.40;99.90;;;;;;2617088;54;19954;-73
2022/08/18 22:47:42;;;;;;;;;;;23.30;99.90;;;;;;2618529;47;19946;-72
2022/08/18 22:50:13;;;;;;;;;;;23.40;99.90;;;;;;2622182;54;19947;-72
2022/08/18 22:52:45;;;;;;;;;;;23.30;99.90;;;;;;2619370;54;20477;-73
2022/08/18 22:55:18;;;;;;;;;;;23.30;99.90;;;;;;2615726;54;19977;-71
2022/08/18 22:57:53;;;;;;;;;;;23.30;99.90;;;;;;2615534;54;19946;-72
2022/08/18 23:00:25;;;;;;;;;;;23.30;99.90;;;;;;2615190;54;19939;-73
2022/08/18 23:02:56;;;;;;;;;;;23.30;99.90;;;;;;2615846;54;19954;-72
2022/08/18 23:05:25;;;;;;;;;;;23.30;99.90;;;;;;2614877;54;20045;-72
2022/08/18 23:07:55;;;;;;;;;;;23.20;99.90;;;;;;2615298;54;19947;-66
2022/08/18 23:10:28;;;;;;;;;;;23.20;99.90;;;;;;2614013;54;19966;-68
2022/08/18 23:12:57;;;;;;;;;;;23.30;99.90;;;;;;2614113;54;19939;-68
2022/08/18 23:18:43;;;;;;;;;;;23.20;99.90;;;;;;2615439;54;19954;-70
2022/08/18 23:21:12;;;;;;;;;;;23.20;99.90;;;;;;2617464;51;19946;-66
2022/08/18 23:24:02;;;;;;;;;;;23.20;99.90;;;;;;2614405;54;19973;-69
2022/08/18 23:26:35;;;;;;;;;;;23.20;99.90;;;;;;2614813;54;19953;-67
2022/08/18 23:29:04;;;;;;;;;;;23.30;99.90;;;;;;2616032;54;19946;-69
2022/08/18 23:31:34;;;;;;;;;;;23.30;99.90;;;;;;2614681;46;20045;-69
2022/08/18 23:34:04;;;;;;;;;;;23.30;99.90;;;;;;2615492;47;19952;-65
2022/08/18 23:36:37;;;;;;;;;;;23.30;99.90;;;;;;2615223;47;19939;-65
2022/08/18 23:39:12;;;;;;;;;;;23.20;99.90;;;;;;2616545;54;19946;-66
2022/08/18 23:41:44;;;;;;;;;;;23.20;99.90;;;;;;2616739;54;19946;-64
2022/08/18 23:44:14;;;;;;;;;;;23.20;99.90;;;;;;2615608;54;19954;-64
2022/08/18 23:46:44;;;;;;;;;;;23.10;99.90;;;;;;2619769;54;19957;-66
2022/08/18 23:49:15;;;;;;;;;;;23.10;99.90;;;;;;2621902;54;19950;-65
2022/08/18 23:51:47;;;;;;;;;;;23.10;99.90;;;;;;2618775;47;19948;-66
2022/08/18 23:54:18;;;;;;;;;;;23.10;99.90;;;;;;2618154;54;19947;-67
2022/08/18 23:56:50;;;;;;;;;;;23.10;99.90;;;;;;2617749;54;19947;-66
2022/08/18 23:59:21;;;;;;;;;;;23.10;99.90;;;;;;2618365;54;20480;-65
